Lamb, Illinois
Current Conditions -  °F | °C
As of 5:35 AM on Saturday 22 Nov 2014 (Local Time) from K5M9 Reporting Station
Overcast Overcast  
Wind Chill: 46°   Ceiling: 10000
Heat Index: 50°   Visibility: 10mi
Dew Point: 39°   Wind: 8mph
Humidity: 68%   Direction: 190°S
Pressure: 30.25"   Gusts: NA
Location:  37.5407°N, 88.2414°W
Report Text: K5M9 221135Z AUTO 19007KT 160V230 10SM SCT080 OVC100 10/04 A3025 RMK AO2 T00980041
Loading
Personal Weather Stations






























Interactive Weather Map New forecast layout! Learn more

10-Day Weather Forecast

Advertisements
Track Severe Weather on mobile